createdAt,value
2022-08-11T00:02:36.786Z,31.10
2022-08-11T00:06:01.492Z,31.60
2022-08-11T00:09:40.389Z,31.40
2022-08-11T00:13:08.577Z,31.90
2022-08-11T00:16:37.065Z,31.60
2022-08-11T00:20:16.325Z,31.50
2022-08-11T00:23:48.324Z,31.90
2022-08-11T00:27:14.330Z,31.90
2022-08-11T00:30:42.679Z,31.80
2022-08-11T00:34:13.322Z,32.10
2022-08-11T00:37:40.070Z,32.20
2022-08-11T00:41:21.302Z,32.00
2022-08-11T00:45:03.569Z,32.60
2022-08-11T00:48:50.625Z,32.50
2022-08-11T00:52:40.374Z,32.60
2022-08-11T00:56:56.673Z,32.80
2022-08-11T01:00:23.243Z,32.90
2022-08-11T01:04:18.019Z,32.50
2022-08-11T01:08:31.077Z,33.00
2022-08-11T01:12:41.358Z,33.20
2022-08-11T01:16:54.900Z,33.30
2022-08-11T01:21:07.870Z,33.40
2022-08-11T01:25:20.078Z,33.60
2022-08-11T01:29:41.615Z,33.70
2022-08-11T01:34:28.433Z,34.00
2022-08-11T01:38:49.054Z,34.30
2022-08-11T01:43:20.734Z,34.10
2022-08-11T01:46:51.373Z,34.40
2022-08-11T01:50:25.142Z,34.00
2022-08-11T01:54:00.789Z,34.20
2022-08-11T01:57:39.766Z,34.30
2022-08-11T02:01:35.485Z,34.50
2022-08-11T02:05:13.133Z,34.50
2022-08-11T02:08:50.812Z,34.60
2022-08-11T02:12:37.578Z,34.80
2022-08-11T02:16:18.128Z,34.90
2022-08-11T02:20:22.422Z,34.70
2022-08-11T02:24:05.419Z,34.70
2022-08-11T02:27:44.157Z,35.30
2022-08-11T02:32:17.183Z,35.10
2022-08-11T02:35:27.912Z,35.00
2022-08-11T02:39:01.728Z,35.20
2022-08-11T02:42:38.941Z,35.40
2022-08-11T02:46:22.044Z,35.90
2022-08-11T02:50:06.296Z,36.10
2022-08-11T02:53:45.138Z,36.00
2022-08-11T02:57:28.937Z,36.60
2022-08-11T03:01:04.113Z,36.10
2022-08-11T03:04:39.769Z,36.30
2022-08-11T03:08:19.890Z,36.10
2022-08-11T03:12:16.829Z,36.40
2022-08-11T03:16:07.962Z,36.60
2022-08-11T03:19:47.475Z,36.70
2022-08-11T03:23:26.865Z,36.80
2022-08-11T03:27:08.406Z,36.80
2022-08-11T03:30:44.400Z,36.90
2022-08-11T03:34:12.666Z,36.80
2022-08-11T03:37:52.255Z,36.70
2022-08-11T03:42:01.363Z,37.00
2022-08-11T03:45:41.161Z,37.10
2022-08-11T03:49:32.220Z,37.00
2022-08-11T03:53:15.554Z,37.30
2022-08-11T03:57:39.621Z,37.60
2022-08-11T04:01:52.913Z,38.00
2022-08-11T04:06:07.277Z,38.10
2022-08-11T04:10:38.029Z,37.90
2022-08-11T04:15:11.767Z,38.10
2022-08-11T04:19:30.920Z,38.10
2022-08-11T04:24:37.229Z,38.50
2022-08-11T04:28:29.253Z,37.90
2022-08-11T04:32:27.947Z,38.50
2022-08-11T04:36:10.862Z,38.10
2022-08-11T04:40:01.070Z,38.20
2022-08-11T04:44:21.413Z,38.60
2022-08-11T04:48:43.918Z,38.90
2022-08-11T04:52:53.011Z,39.10
2022-08-11T04:56:39.179Z,39.80
2022-08-11T05:00:34.474Z,40.20
2022-08-11T05:05:04.834Z,40.60
2022-08-11T05:09:04.934Z,40.90
2022-08-11T05:12:42.224Z,40.90
2022-08-11T05:16:32.232Z,40.50
2022-08-11T05:20:13.660Z,40.40
2022-08-11T05:24:00.763Z,40.10
2022-08-11T05:27:51.987Z,40.00
2022-08-11T05:31:38.374Z,39.40
2022-08-11T05:35:07.435Z,39.00
2022-08-11T05:38:55.732Z,38.60
2022-08-11T05:42:42.035Z,38.40
2022-08-11T05:46:25.680Z,38.20
2022-08-11T05:50:13.743Z,37.50
2022-08-11T05:54:29.039Z,37.50
2022-08-11T05:57:58.386Z,37.00
2022-08-11T06:01:28.625Z,37.00
2022-08-11T06:04:59.839Z,37.10
2022-08-11T06:08:31.779Z,36.90
2022-08-11T06:12:01.563Z,36.50
2022-08-11T06:15:27.964Z,36.60
2022-08-11T06:18:52.062Z,35.80
2022-08-11T06:22:23.836Z,35.40
2022-08-11T06:25:49.529Z,34.40
2022-08-11T06:29:18.547Z,35.10
2022-08-11T06:32:46.174Z,33.60
2022-08-11T06:36:23.596Z,32.90
2022-08-11T06:39:59.420Z,32.10
2022-08-11T06:43:27.126Z,31.70
2022-08-11T06:46:55.926Z,31.30
2022-08-11T06:50:40.285Z,30.80
2022-08-11T06:54:05.965Z,30.30
2022-08-11T06:57:49.344Z,30.00
2022-08-11T07:01:19.990Z,29.60
2022-08-11T07:04:52.843Z,29.20
2022-08-11T07:09:14.428Z,28.80
2022-08-11T07:13:08.319Z,28.20
2022-08-11T07:16:35.663Z,28.00
2022-08-11T07:20:21.314Z,28.10
2022-08-11T07:24:02.893Z,27.70
2022-08-11T07:27:55.608Z,27.50
2022-08-11T07:31:30.860Z,27.20
2022-08-11T07:35:03.618Z,26.90
2022-08-11T07:38:47.491Z,26.70
2022-08-11T07:42:16.857Z,26.50
2022-08-11T07:46:06.229Z,26.10
2022-08-11T07:49:53.185Z,26.00
2022-08-11T07:53:18.997Z,25.70
2022-08-11T07:56:54.784Z,25.70
2022-08-11T08:00:38.138Z,25.50
2022-08-11T08:04:20.156Z,25.20
2022-08-11T08:08:02.840Z,25.20
2022-08-11T08:11:45.189Z,25.00
2022-08-11T08:15:29.544Z,25.00
2022-08-11T08:18:53.549Z,24.80
2022-08-11T08:22:38.817Z,24.50
2022-08-11T08:26:28.809Z,24.30
2022-08-11T08:30:10.529Z,24.00
2022-08-11T08:33:34.433Z,23.70
2022-08-11T08:36:59.261Z,23.60
2022-08-11T08:40:22.804Z,23.40
2022-08-11T08:43:53.062Z,23.40
2022-08-11T08:47:43.041Z,23.30
2022-08-11T08:51:58.748Z,23.30
2022-08-11T08:55:20.220Z,23.00
2022-08-11T08:58:51.565Z,22.60
2022-08-11T09:02:16.128Z,22.60
2022-08-11T09:05:40.212Z,22.50
2022-08-11T09:09:07.340Z,22.30
2022-08-11T09:12:35.696Z,22.60
2022-08-11T09:16:04.659Z,22.70
2022-08-11T09:19:28.386Z,22.30
2022-08-11T09:27:02.938Z,21.90
2022-08-11T09:30:28.293Z,22.20
2022-08-11T09:33:56.186Z,22.10
2022-08-11T09:37:55.497Z,21.80
2022-08-11T09:41:20.183Z,22.00
2022-08-11T09:44:50.504Z,22.30
2022-08-11T09:48:14.680Z,22.30
2022-08-11T09:51:39.966Z,22.10
2022-08-11T09:55:11.019Z,22.10
2022-08-11T09:58:42.053Z,22.00
2022-08-11T10:02:10.808Z,21.90
2022-08-11T10:05:53.198Z,21.70
2022-08-11T10:09:24.325Z,21.60
2022-08-11T10:12:53.136Z,21.40
2022-08-11T10:16:18.940Z,21.10
2022-08-11T10:20:04.269Z,21.20
2022-08-11T10:24:01.365Z,21.50
2022-08-11T10:27:55.199Z,21.60
2022-08-11T10:31:57.800Z,21.30
2022-08-11T10:35:21.292Z,21.20
2022-08-11T10:38:50.315Z,21.10
2022-08-11T10:42:55.286Z,21.10
2022-08-11T10:46:35.935Z,21.20
2022-08-11T10:50:18.491Z,20.80
2022-08-11T10:54:03.342Z,20.60
2022-08-11T10:58:04.910Z,20.40
2022-08-11T11:01:36.540Z,20.50
2022-08-11T11:05:09.383Z,20.50
2022-08-11T11:08:52.876Z,20.50
2022-08-11T11:12:42.085Z,20.60
2022-08-11T11:16:23.741Z,20.60
2022-08-11T11:19:54.466Z,20.70
2022-08-11T11:23:24.715Z,20.70
2022-08-11T11:27:00.865Z,20.70
2022-08-11T11:30:33.724Z,20.40
2022-08-11T11:34:18.432Z,20.10
2022-08-11T11:38:03.622Z,19.80
2022-08-11T11:41:29.571Z,20.10
2022-08-11T11:44:56.056Z,20.20
2022-08-11T11:48:20.670Z,20.10
2022-08-11T11:51:50.149Z,20.10
2022-08-11T11:55:15.911Z,20.20
2022-08-11T11:58:59.072Z,20.20
2022-08-11T12:02:23.241Z,20.00
2022-08-11T12:05:48.130Z,19.80
2022-08-11T12:09:20.902Z,19.80
2022-08-11T12:13:06.512Z,19.70
2022-08-11T12:16:36.124Z,19.60
2022-08-11T12:20:01.762Z,19.60
2022-08-11T12:23:43.487Z,19.70
2022-08-11T12:27:24.005Z,19.60
2022-08-11T12:30:54.298Z,19.60
2022-08-11T12:34:19.244Z,19.70
2022-08-11T12:37:46.667Z,19.60
2022-08-11T12:41:30.190Z,19.60
2022-08-11T12:45:14.225Z,19.60
2022-08-11T12:49:10.931Z,19.70
2022-08-11T12:52:45.000Z,19.00
2022-08-11T12:56:28.416Z,19.60
2022-08-11T13:00:10.642Z,19.60
2022-08-11T13:03:56.830Z,19.50
2022-08-11T13:07:22.229Z,19.40
2022-08-11T13:11:05.394Z,19.50
2022-08-11T13:14:33.022Z,19.70
2022-08-11T13:17:57.034Z,19.80
2022-08-11T13:21:22.503Z,19.80
2022-08-11T13:24:50.075Z,19.60
2022-08-11T13:28:14.187Z,19.60
2022-08-11T13:31:38.272Z,19.70
2022-08-11T13:35:02.015Z,19.60
2022-08-11T13:38:27.610Z,19.50
2022-08-11T13:41:56.535Z,19.60
2022-08-11T13:45:24.343Z,19.80
2022-08-11T13:48:49.234Z,19.90
2022-08-11T13:52:16.566Z,20.30
2022-08-11T13:55:51.786Z,20.00
2022-08-11T13:59:22.983Z,19.90
2022-08-11T14:02:55.681Z,19.70
2022-08-11T14:06:22.735Z,19.70
2022-08-11T14:09:54.014Z,19.70
2022-08-11T14:13:42.397Z,19.50
2022-08-11T14:17:36.068Z,19.60
2022-08-11T14:21:24.489Z,19.70
2022-08-11T14:24:49.670Z,19.90
2022-08-11T14:28:29.717Z,19.90
2022-08-11T14:32:02.373Z,20.00
2022-08-11T14:35:29.569Z,20.10
2022-08-11T14:38:55.462Z,20.10
2022-08-11T14:42:39.145Z,20.10
2022-08-11T14:46:20.514Z,20.20
2022-08-11T14:49:58.070Z,20.30
2022-08-11T14:53:29.941Z,20.30
2022-08-11T14:56:59.869Z,20.30
2022-08-11T15:00:24.397Z,20.50
2022-08-11T15:04:04.367Z,20.60
2022-08-11T15:07:33.701Z,20.70
2022-08-11T15:10:58.622Z,20.70
2022-08-11T15:14:36.492Z,20.70
2022-08-11T15:18:05.060Z,20.60
2022-08-11T15:21:46.235Z,20.70
2022-08-11T15:25:09.933Z,20.70
2022-08-11T15:29:00.717Z,20.80
2022-08-11T15:32:44.792Z,20.90
2022-08-11T15:36:29.125Z,20.90
2022-08-11T15:40:31.183Z,20.90
2022-08-11T15:44:15.795Z,20.90
2022-08-11T15:47:47.171Z,21.00
2022-08-11T15:51:25.183Z,21.10
2022-08-11T15:54:51.091Z,21.20
2022-08-11T15:58:35.049Z,21.20
2022-08-11T16:02:20.921Z,21.20
2022-08-11T16:05:53.054Z,21.40
2022-08-11T16:09:24.605Z,21.40
2022-08-11T16:13:22.448Z,21.50
2022-08-11T16:16:46.762Z,21.60
2022-08-11T16:20:15.272Z,21.60
2022-08-11T16:23:41.550Z,21.70
2022-08-11T16:27:14.043Z,21.70
2022-08-11T16:30:44.108Z,21.70
2022-08-11T16:34:30.499Z,21.70
2022-08-11T16:38:14.750Z,21.80
2022-08-11T16:41:59.093Z,21.90
2022-08-11T16:45:41.323Z,21.90
2022-08-11T16:49:08.572Z,21.90
2022-08-11T16:52:32.147Z,22.00
2022-08-11T16:56:02.921Z,21.90
2022-08-11T16:59:33.195Z,22.00
2022-08-11T17:03:19.975Z,21.90
2022-08-11T17:07:23.629Z,22.00
2022-08-11T17:11:11.595Z,22.60
2022-08-11T17:14:44.641Z,22.10
2022-08-11T17:18:34.149Z,22.10
2022-08-11T17:22:15.794Z,22.20
2022-08-11T17:26:00.426Z,22.30
2022-08-11T17:29:29.890Z,22.30
2022-08-11T17:33:12.290Z,22.40
2022-08-11T17:36:43.145Z,22.50
2022-08-11T17:40:14.610Z,22.50
2022-08-11T17:43:59.622Z,22.50
2022-08-11T17:47:42.208Z,22.60
2022-08-11T17:51:11.502Z,22.50
2022-08-11T17:54:56.182Z,22.60
2022-08-11T17:58:40.136Z,22.60
2022-08-11T18:02:21.104Z,22.60
2022-08-11T18:06:00.851Z,22.70
2022-08-11T18:09:43.918Z,22.70
2022-08-11T18:13:26.482Z,22.70
2022-08-11T18:17:08.165Z,22.80
2022-08-11T18:20:50.808Z,22.90
2022-08-11T18:24:34.623Z,23.10
2022-08-11T18:28:19.656Z,23.20
2022-08-11T18:32:06.973Z,23.40
2022-08-11T18:35:48.675Z,23.40
2022-08-11T18:39:32.617Z,23.60
2022-08-11T18:43:25.029Z,23.90
2022-08-11T18:47:12.162Z,23.90
2022-08-11T18:51:29.621Z,23.90
2022-08-11T18:55:03.188Z,24.00
2022-08-11T18:58:50.568Z,24.60
2022-08-11T19:02:49.441Z,24.10
2022-08-11T19:06:39.882Z,24.20
2022-08-11T19:10:24.602Z,24.20
2022-08-11T19:14:08.854Z,24.40
2022-08-11T19:17:54.500Z,24.60
2022-08-11T19:21:38.189Z,24.60
2022-08-11T19:25:25.298Z,24.70
2022-08-11T19:30:07.316Z,24.80
2022-08-11T19:33:14.028Z,24.90
2022-08-11T19:36:56.796Z,24.80
2022-08-11T19:40:39.376Z,24.90
2022-08-11T19:44:23.805Z,25.10
2022-08-11T19:48:30.539Z,25.20
2022-08-11T19:52:09.597Z,25.30
2022-08-11T19:55:51.579Z,25.30
2022-08-11T19:59:35.449Z,25.40
2022-08-11T20:03:18.239Z,25.50
2022-08-11T20:07:00.189Z,25.60
2022-08-11T20:10:42.146Z,25.70
2022-08-11T20:14:26.951Z,25.80
2022-08-11T20:18:10.837Z,26.00
2022-08-11T20:21:56.225Z,26.10
2022-08-11T20:25:41.195Z,26.20
2022-08-11T20:29:25.210Z,26.20
2022-08-11T20:33:10.487Z,26.30
2022-08-11T20:36:55.028Z,26.40
2022-08-11T20:40:39.573Z,26.50
2022-08-11T20:44:22.681Z,26.80
2022-08-11T20:48:05.863Z,26.80
2022-08-11T20:51:48.811Z,26.90
2022-08-11T20:55:52.244Z,27.00
2022-08-11T20:59:52.809Z,27.00
2022-08-11T21:03:45.271Z,27.10
2022-08-11T21:07:44.258Z,27.00
2022-08-11T21:11:39.436Z,27.20
2022-08-11T21:15:47.438Z,27.30
2022-08-11T21:20:01.259Z,27.40
2022-08-11T21:23:38.010Z,27.40
2022-08-11T21:27:24.856Z,27.40
2022-08-11T21:31:09.432Z,27.50
2022-08-11T21:34:52.235Z,27.50
2022-08-11T21:38:36.643Z,27.50
2022-08-11T21:42:19.736Z,27.80
2022-08-11T21:46:04.437Z,27.70
2022-08-11T21:49:48.146Z,27.80
2022-08-11T21:53:30.567Z,27.90
2022-08-11T21:57:14.598Z,27.80
2022-08-11T22:00:56.233Z,27.90
2022-08-11T22:04:39.723Z,28.40
2022-08-11T22:08:21.735Z,27.80
2022-08-11T22:12:30.171Z,27.90
2022-08-11T22:16:05.347Z,27.90
2022-08-11T22:19:47.881Z,27.90
2022-08-11T22:23:30.587Z,28.10
2022-08-11T22:27:17.777Z,28.10
2022-08-11T22:30:58.964Z,28.00
2022-08-11T22:34:52.750Z,28.10
2022-08-11T22:38:37.495Z,28.20
2022-08-11T22:42:18.825Z,28.20
2022-08-11T22:46:15.223Z,28.20
2022-08-11T22:50:00.626Z,28.20
2022-08-11T22:53:57.287Z,28.40
2022-08-11T22:58:00.482Z,28.40
2022-08-11T23:01:57.453Z,28.40
2022-08-11T23:05:41.486Z,28.40
2022-08-11T23:09:24.132Z,28.50
2022-08-11T23:13:05.207Z,28.60
2022-08-11T23:16:48.849Z,28.60
2022-08-11T23:20:38.849Z,28.70
2022-08-11T23:24:26.363Z,28.80
2022-08-11T23:28:07.372Z,28.90
2022-08-11T23:31:52.781Z,28.90
2022-08-11T23:35:39.593Z,29.10
2022-08-11T23:39:22.298Z,29.10
2022-08-11T23:43:04.666Z,29.20
2022-08-11T23:46:46.423Z,29.40
2022-08-11T23:50:29.603Z,29.40
2022-08-11T23:54:11.158Z,29.50
2022-08-11T23:57:53.341Z,30.10
